sensor_id;sensor_type;location;lat;lon;timestamp;temperature;humidity
12557;DHT22;6344;49.932;8.308;2023-02-12T00:00:00;6.20;99.90
12557;DHT22;6344;49.932;8.308;2023-02-12T00:02:27;6.10;99.90
12557;DHT22;6344;49.932;8.308;2023-02-12T00:04:54;6.10;99.90
12557;DHT22;6344;49.932;8.308;2023-02-12T00:07:20;6.00;99.90
12557;DHT22;6344;49.932;8.308;2023-02-12T00:09:47;6.10;99.90
12557;DHT22;6344;49.932;8.308;2023-02-12T00:12:13;6.20;99.90
12557;DHT22;6344;49.932;8.308;2023-02-12T00:14:41;6.30;99.90
12557;DHT22;6344;49.932;8.308;2023-02-12T00:17:09;6.20;99.90
12557;DHT22;6344;49.932;8.308;2023-02-12T00:19:36;6.10;99.90
12557;DHT22;6344;49.932;8.308;2023-02-12T00:22:03;6.10;99.90
12557;DHT22;6344;49.932;8.308;2023-02-12T00:24:29;6.00;99.90
12557;DHT22;6344;49.932;8.308;2023-02-12T00:26:56;6.10;99.90
12557;DHT22;6344;49.932;8.308;2023-02-12T00:29:23;6.00;99.90
12557;DHT22;6344;49.932;8.308;2023-02-12T00:31:49;5.90;99.90
12557;DHT22;6344;49.932;8.308;2023-02-12T00:34:17;6.00;99.90
12557;DHT22;6344;49.932;8.308;2023-02-12T00:36:44;5.90;99.90
12557;DHT22;6344;49.932;8.308;2023-02-12T00:39:11;5.80;99.90
12557;DHT22;6344;49.932;8.308;2023-02-12T00:41:37;5.80;99.90
12557;DHT22;6344;49.932;8.308;2023-02-12T00:44:04;5.70;99.90
12557;DHT22;6344;49.932;8.308;2023-02-12T00:46:31;5.70;99.90
12557;DHT22;6344;49.932;8.308;2023-02-12T00:48:57;5.60;99.90
12557;DHT22;6344;49.932;8.308;2023-02-12T00:51:25;5.60;99.90
12557;DHT22;6344;49.932;8.308;2023-02-12T00:53:52;5.50;99.90
12557;DHT22;6344;49.932;8.308;2023-02-12T00:56:19;5.70;99.90
12557;DHT22;6344;49.932;8.308;2023-02-12T00:58:45;5.80;99.90
12557;DHT22;6344;49.932;8.308;2023-02-12T01:01:12;5.80;99.90
12557;DHT22;6344;49.932;8.308;2023-02-12T01:03:39;5.80;99.90
12557;DHT22;6344;49.932;8.308;2023-02-12T01:06:06;5.80;99.90
12557;DHT22;6344;49.932;8.308;2023-02-12T01:08:34;5.90;99.90
12557;DHT22;6344;49.932;8.308;2023-02-12T01:11:03;5.90;99.90
12557;DHT22;6344;49.932;8.308;2023-02-12T01:13:31;5.90;99.90
12557;DHT22;6344;49.932;8.308;2023-02-12T01:16:04;5.80;99.90
12557;DHT22;6344;49.932;8.308;2023-02-12T01:18:33;5.80;99.90
12557;DHT22;6344;49.932;8.308;2023-02-12T01:21:00;5.80;99.90
12557;DHT22;6344;49.932;8.308;2023-02-12T01:23:28;5.90;99.90
12557;DHT22;6344;49.932;8.308;2023-02-12T01:25:57;5.90;99.90
12557;DHT22;6344;49.932;8.308;2023-02-12T01:28:24;5.90;99.90
12557;DHT22;6344;49.932;8.308;2023-02-12T01:30:50;5.90;99.90
12557;DHT22;6344;49.932;8.308;2023-02-12T01:33:17;6.00;99.90
12557;DHT22;6344;49.932;8.308;2023-02-12T01:35:45;6.00;99.90
12557;DHT22;6344;49.932;8.308;2023-02-12T01:38:12;5.90;99.90
12557;DHT22;6344;49.932;8.308;2023-02-12T01:40:38;5.90;99.90
12557;DHT22;6344;49.932;8.308;2023-02-12T01:43:10;6.00;99.90
12557;DHT22;6344;49.932;8.308;2023-02-12T01:45:46;6.00;99.90
12557;DHT22;6344;49.932;8.308;2023-02-12T01:48:16;6.10;99.90
12557;DHT22;6344;49.932;8.308;2023-02-12T01:50:45;6.10;99.90
12557;DHT22;6344;49.932;8.308;2023-02-12T01:53:13;6.00;99.90
12557;DHT22;6344;49.932;8.308;2023-02-12T01:55:45;6.10;99.90
12557;DHT22;6344;49.932;8.308;2023-02-12T01:58:14;6.10;99.90
12557;DHT22;6344;49.932;8.308;2023-02-12T02:00:41;6.20;99.90
12557;DHT22;6344;49.932;8.308;2023-02-12T02:03:08;6.20;99.90
12557;DHT22;6344;49.932;8.308;2023-02-12T02:05:42;6.30;99.90
12557;DHT22;6344;49.932;8.308;2023-02-12T02:08:09;6.30;99.90
12557;DHT22;6344;49.932;8.308;2023-02-12T02:10:36;6.30;99.90
12557;DHT22;6344;49.932;8.308;2023-02-12T02:13:03;6.30;99.90
12557;DHT22;6344;49.932;8.308;2023-02-12T02:15:51;6.20;99.90
12557;DHT22;6344;49.932;8.308;2023-02-12T02:18:23;6.20;99.90
12557;DHT22;6344;49.932;8.308;2023-02-12T02:24:15;6.20;99.90
12557;DHT22;6344;49.932;8.308;2023-02-12T02:27:21;6.20;99.90
12557;DHT22;6344;49.932;8.308;2023-02-12T02:33:09;6.20;99.90
12557;DHT22;6344;49.932;8.308;2023-02-12T02:35:42;6.10;99.90
12557;DHT22;6344;49.932;8.308;2023-02-12T02:41:36;6.20;99.90
12557;DHT22;6344;49.932;8.308;2023-02-12T02:44:09;6.30;99.90
12557;DHT22;6344;49.932;8.308;2023-02-12T02:46:42;6.40;99.90
12557;DHT22;6344;49.932;8.308;2023-02-12T02:49:15;6.40;99.90
12557;DHT22;6344;49.932;8.308;2023-02-12T02:51:46;6.40;99.90
12557;DHT22;6344;49.932;8.308;2023-02-12T02:54:16;6.40;99.90
12557;DHT22;6344;49.932;8.308;2023-02-12T02:56:47;6.30;99.90
12557;DHT22;6344;49.932;8.308;2023-02-12T02:59:17;6.30;99.90
12557;DHT22;6344;49.932;8.308;2023-02-12T03:01:48;6.30;99.90
12557;DHT22;6344;49.932;8.308;2023-02-12T03:04:20;6.30;99.90
12557;DHT22;6344;49.932;8.308;2023-02-12T03:06:54;6.30;99.90
12557;DHT22;6344;49.932;8.308;2023-02-12T03:09:30;6.30;99.90
12557;DHT22;6344;49.932;8.308;2023-02-12T03:12:02;6.20;99.90
12557;DHT22;6344;49.932;8.308;2023-02-12T03:14:32;6.40;99.90
12557;DHT22;6344;49.932;8.308;2023-02-12T03:17:03;6.20;99.90
12557;DHT22;6344;49.932;8.308;2023-02-12T03:19:36;6.20;99.90
12557;DHT22;6344;49.932;8.308;2023-02-12T03:22:07;6.10;99.90
12557;DHT22;6344;49.932;8.308;2023-02-12T03:24:37;6.10;99.90
12557;DHT22;6344;49.932;8.308;2023-02-12T03:27:08;6.10;99.90
12557;DHT22;6344;49.932;8.308;2023-02-12T03:29:36;6.10;99.90
12557;DHT22;6344;49.932;8.308;2023-02-12T03:32:13;6.10;99.90
12557;DHT22;6344;49.932;8.308;2023-02-12T03:34:46;6.00;99.90
12557;DHT22;6344;49.932;8.308;2023-02-12T03:37:18;6.10;99.90
12557;DHT22;6344;49.932;8.308;2023-02-12T03:39:51;6.10;99.90
12557;DHT22;6344;49.932;8.308;2023-02-12T03:42:26;6.10;99.90
12557;DHT22;6344;49.932;8.308;2023-02-12T03:45:00;6.20;99.90
12557;DHT22;6344;49.932;8.308;2023-02-12T03:47:38;6.10;99.90
12557;DHT22;6344;49.932;8.308;2023-02-12T03:50:11;6.20;99.90
12557;DHT22;6344;49.932;8.308;2023-02-12T03:52:41;6.10;99.90
12557;DHT22;6344;49.932;8.308;2023-02-12T03:55:08;6.10;99.90
12557;DHT22;6344;49.932;8.308;2023-02-12T03:57:39;6.00;99.90
12557;DHT22;6344;49.932;8.308;2023-02-12T04:00:09;6.10;99.90
12557;DHT22;6344;49.932;8.308;2023-02-12T04:02:36;6.10;99.90
12557;DHT22;6344;49.932;8.308;2023-02-12T04:05:04;6.10;99.90
12557;DHT22;6344;49.932;8.308;2023-02-12T04:07:32;6.10;99.90
12557;DHT22;6344;49.932;8.308;2023-02-12T04:10:00;6.00;99.90
12557;DHT22;6344;49.932;8.308;2023-02-12T04:12:33;6.00;99.90
12557;DHT22;6344;49.932;8.308;2023-02-12T04:15:13;6.00;99.90
12557;DHT22;6344;49.932;8.308;2023-02-12T04:17:47;6.00;99.90
12557;DHT22;6344;49.932;8.308;2023-02-12T04:20:22;6.00;99.90
12557;DHT22;6344;49.932;8.308;2023-02-12T04:23:00;6.00;99.90
12557;DHT22;6344;49.932;8.308;2023-02-12T04:25:42;5.90;99.90
12557;DHT22;6344;49.932;8.308;2023-02-12T04:28:19;5.90;99.90
12557;DHT22;6344;49.932;8.308;2023-02-12T04:30:56;6.00;99.90
12557;DHT22;6344;49.932;8.308;2023-02-12T04:33:26;6.00;99.90
12557;DHT22;6344;49.932;8.308;2023-02-12T04:35:59;6.00;99.90
12557;DHT22;6344;49.932;8.308;2023-02-12T04:38:31;6.00;99.90
12557;DHT22;6344;49.932;8.308;2023-02-12T04:41:00;6.10;99.90
12557;DHT22;6344;49.932;8.308;2023-02-12T04:43:28;6.10;99.90
12557;DHT22;6344;49.932;8.308;2023-02-12T04:45:55;6.00;99.90
12557;DHT22;6344;49.932;8.308;2023-02-12T04:48:22;6.00;99.90
12557;DHT22;6344;49.932;8.308;2023-02-12T04:50:48;6.00;99.90
12557;DHT22;6344;49.932;8.308;2023-02-12T04:53:15;6.00;99.90
12557;DHT22;6344;49.932;8.308;2023-02-12T04:55:43;6.00;99.90
12557;DHT22;6344;49.932;8.308;2023-02-12T04:58:12;6.00;99.90
12557;DHT22;6344;49.932;8.308;2023-02-12T05:00:38;6.00;99.90
12557;DHT22;6344;49.932;8.308;2023-02-12T05:03:05;6.10;99.90
12557;DHT22;6344;49.932;8.308;2023-02-12T05:05:33;6.00;99.90
12557;DHT22;6344;49.932;8.308;2023-02-12T05:08:00;6.10;99.90
12557;DHT22;6344;49.932;8.308;2023-02-12T05:10:26;6.20;99.90
12557;DHT22;6344;49.932;8.308;2023-02-12T05:12:55;6.20;99.90
12557;DHT22;6344;49.932;8.308;2023-02-12T05:15:22;6.40;99.90
12557;DHT22;6344;49.932;8.308;2023-02-12T05:17:48;6.40;99.90
12557;DHT22;6344;49.932;8.308;2023-02-12T05:20:15;6.20;99.90
12557;DHT22;6344;49.932;8.308;2023-02-12T05:22:42;6.10;99.90
12557;DHT22;6344;49.932;8.308;2023-02-12T05:25:08;6.00;99.90
12557;DHT22;6344;49.932;8.308;2023-02-12T05:27:36;6.00;99.90
12557;DHT22;6344;49.932;8.308;2023-02-12T05:30:05;6.40;99.90
12557;DHT22;6344;49.932;8.308;2023-02-12T05:32:33;6.40;99.90
12557;DHT22;6344;49.932;8.308;2023-02-12T05:35:00;6.40;99.90
12557;DHT22;6344;49.932;8.308;2023-02-12T05:37:27;6.20;99.90
12557;DHT22;6344;49.932;8.308;2023-02-12T05:39:55;6.10;99.90
12557;DHT22;6344;49.932;8.308;2023-02-12T05:42:22;6.00;99.90
12557;DHT22;6344;49.932;8.308;2023-02-12T05:44:49;5.90;99.90
12557;DHT22;6344;49.932;8.308;2023-02-12T05:47:17;5.90;99.90
12557;DHT22;6344;49.932;8.308;2023-02-12T05:49:43;6.20;99.90
12557;DHT22;6344;49.932;8.308;2023-02-12T05:52:10;6.30;99.90
12557;DHT22;6344;49.932;8.308;2023-02-12T05:54:36;6.20;99.90
12557;DHT22;6344;49.932;8.308;2023-02-12T05:57:03;6.40;99.90
12557;DHT22;6344;49.932;8.308;2023-02-12T05:59:31;6.50;99.90
12557;DHT22;6344;49.932;8.308;2023-02-12T06:01:58;6.40;99.90
12557;DHT22;6344;49.932;8.308;2023-02-12T06:04:27;6.30;99.90
12557;DHT22;6344;49.932;8.308;2023-02-12T06:06:55;6.20;99.90
12557;DHT22;6344;49.932;8.308;2023-02-12T06:09:22;6.20;99.90
12557;DHT22;6344;49.932;8.308;2023-02-12T06:11:49;6.10;99.90
12557;DHT22;6344;49.932;8.308;2023-02-12T06:14:18;5.90;99.90
12557;DHT22;6344;49.932;8.308;2023-02-12T06:16:45;5.90;99.90
12557;DHT22;6344;49.932;8.308;2023-02-12T06:19:12;5.70;99.90
12557;DHT22;6344;49.932;8.308;2023-02-12T06:21:40;5.70;99.90
12557;DHT22;6344;49.932;8.308;2023-02-12T06:24:08;5.50;99.90
12557;DHT22;6344;49.932;8.308;2023-02-12T06:26:35;5.40;99.90
12557;DHT22;6344;49.932;8.308;2023-02-12T06:29:02;5.20;99.90
12557;DHT22;6344;49.932;8.308;2023-02-12T06:31:29;5.10;99.90
12557;DHT22;6344;49.932;8.308;2023-02-12T06:33:59;5.10;99.90
12557;DHT22;6344;49.932;8.308;2023-02-12T06:36:26;5.30;99.90
12557;DHT22;6344;49.932;8.308;2023-02-12T06:38:54;5.40;99.90
12557;DHT22;6344;49.932;8.308;2023-02-12T06:41:21;5.20;99.90
12557;DHT22;6344;49.932;8.308;2023-02-12T06:43:48;5.20;99.90
12557;DHT22;6344;49.932;8.308;2023-02-12T06:46:15;4.90;99.90
12557;DHT22;6344;49.932;8.308;2023-02-12T06:48:42;4.70;99.90
12557;DHT22;6344;49.932;8.308;2023-02-12T06:51:10;4.70;99.90
12557;DHT22;6344;49.932;8.308;2023-02-12T06:53:37;4.60;99.90
12557;DHT22;6344;49.932;8.308;2023-02-12T06:56:07;4.60;99.90
12557;DHT22;6344;49.932;8.308;2023-02-12T06:58:36;4.80;99.90
12557;DHT22;6344;49.932;8.308;2023-02-12T07:01:11;5.10;99.90
12557;DHT22;6344;49.932;8.308;2023-02-12T07:03:39;5.20;99.90
12557;DHT22;6344;49.932;8.308;2023-02-12T07:06:07;5.10;99.90
12557;DHT22;6344;49.932;8.308;2023-02-12T07:08:34;5.10;99.90
12557;DHT22;6344;49.932;8.308;2023-02-12T07:11:01;5.20;99.90
12557;DHT22;6344;49.932;8.308;2023-02-12T07:13:29;5.40;99.90
12557;DHT22;6344;49.932;8.308;2023-02-12T07:16:02;5.30;99.90
12557;DHT22;6344;49.932;8.308;2023-02-12T07:18:29;5.20;99.90
12557;DHT22;6344;49.932;8.308;2023-02-12T07:20:55;5.20;99.90
12557;DHT22;6344;49.932;8.308;2023-02-12T07:23:22;5.40;99.90
12557;DHT22;6344;49.932;8.308;2023-02-12T07:25:54;5.50;99.90
12557;DHT22;6344;49.932;8.308;2023-02-12T07:28:20;6.00;99.90
12557;DHT22;6344;49.932;8.308;2023-02-12T07:30:48;6.00;99.90
12557;DHT22;6344;49.932;8.308;2023-02-12T07:33:15;5.90;99.90
12557;DHT22;6344;49.932;8.308;2023-02-12T07:35:42;5.90;99.90
12557;DHT22;6344;49.932;8.308;2023-02-12T07:38:08;6.00;99.90
12557;DHT22;6344;49.932;8.308;2023-02-12T07:40:35;6.10;99.90
12557;DHT22;6344;49.932;8.308;2023-02-12T07:43:02;6.10;99.90
12557;DHT22;6344;49.932;8.308;2023-02-12T07:45:28;6.20;99.90
12557;DHT22;6344;49.932;8.308;2023-02-12T07:47:56;6.20;99.90
12557;DHT22;6344;49.932;8.308;2023-02-12T07:50:23;6.40;99.90
12557;DHT22;6344;49.932;8.308;2023-02-12T07:52:50;6.60;99.90
12557;DHT22;6344;49.932;8.308;2023-02-12T07:55:16;6.80;99.90
12557;DHT22;6344;49.932;8.308;2023-02-12T07:57:44;6.60;99.90
12557;DHT22;6344;49.932;8.308;2023-02-12T08:00:11;6.60;99.90
12557;DHT22;6344;49.932;8.308;2023-02-12T08:02:38;6.60;99.90
12557;DHT22;6344;49.932;8.308;2023-02-12T08:05:07;6.90;99.90
12557;DHT22;6344;49.932;8.308;2023-02-12T08:07:33;7.00;99.90
12557;DHT22;6344;49.932;8.308;2023-02-12T08:10:00;7.00;99.90
12557;DHT22;6344;49.932;8.308;2023-02-12T08:12:26;7.20;99.90
12557;DHT22;6344;49.932;8.308;2023-02-12T08:14:53;7.30;99.90
12557;DHT22;6344;49.932;8.308;2023-02-12T08:17:20;7.20;99.90
12557;DHT22;6344;49.932;8.308;2023-02-12T08:19:46;7.30;99.90
12557;DHT22;6344;49.932;8.308;2023-02-12T08:22:14;7.30;99.90
12557;DHT22;6344;49.932;8.308;2023-02-12T08:24:41;7.40;99.90
12557;DHT22;6344;49.932;8.308;2023-02-12T08:27:08;7.50;99.90
12557;DHT22;6344;49.932;8.308;2023-02-12T08:29:35;7.50;99.90
12557;DHT22;6344;49.932;8.308;2023-02-12T08:32:03;7.60;99.90
12557;DHT22;6344;49.932;8.308;2023-02-12T08:34:32;7.90;99.90
12557;DHT22;6344;49.932;8.308;2023-02-12T08:36:59;8.10;99.90
12557;DHT22;6344;49.932;8.308;2023-02-12T08:39:28;8.20;99.90
12557;DHT22;6344;49.932;8.308;2023-02-12T08:41:55;8.00;99.90
12557;DHT22;6344;49.932;8.308;2023-02-12T08:44:23;8.00;99.90
12557;DHT22;6344;49.932;8.308;2023-02-12T08:46:50;8.20;99.90
12557;DHT22;6344;49.932;8.308;2023-02-12T08:49:20;8.30;99.90
12557;DHT22;6344;49.932;8.308;2023-02-12T08:51:49;8.20;99.90
12557;DHT22;6344;49.932;8.308;2023-02-12T08:54:17;8.30;99.90
12557;DHT22;6344;49.932;8.308;2023-02-12T08:56:46;8.50;99.90
12557;DHT22;6344;49.932;8.308;2023-02-12T08:59:14;8.50;99.90
12557;DHT22;6344;49.932;8.308;2023-02-12T09:01:42;9.00;99.90
12557;DHT22;6344;49.932;8.308;2023-02-12T09:04:13;9.20;99.90
12557;DHT22;6344;49.932;8.308;2023-02-12T09:06:42;9.20;99.90
12557;DHT22;6344;49.932;8.308;2023-02-12T09:09:09;9.30;99.90
12557;DHT22;6344;49.932;8.308;2023-02-12T09:11:35;9.40;99.90
12557;DHT22;6344;49.932;8.308;2023-02-12T09:14:05;9.40;99.90
12557;DHT22;6344;49.932;8.308;2023-02-12T09:16:35;9.30;99.90
12557;DHT22;6344;49.932;8.308;2023-02-12T09:19:03;9.50;99.90
12557;DHT22;6344;49.932;8.308;2023-02-12T09:21:29;9.70;99.90
12557;DHT22;6344;49.932;8.308;2023-02-12T09:23:56;10.10;99.90
12557;DHT22;6344;49.932;8.308;2023-02-12T09:26:24;10.00;99.90
12557;DHT22;6344;49.932;8.308;2023-02-12T09:28:51;10.40;71.90
12557;DHT22;6344;49.932;8.308;2023-02-12T09:31:21;10.20;99.90
12557;DHT22;6344;49.932;8.308;2023-02-12T09:33:51;9.90;99.90
12557;DHT22;6344;49.932;8.308;2023-02-12T09:36:18;9.90;99.90
12557;DHT22;6344;49.932;8.308;2023-02-12T09:38:45;10.10;87.90
12557;DHT22;6344;49.932;8.308;2023-02-12T09:41:43;9.90;99.90
12557;DHT22;6344;49.932;8.308;2023-02-12T09:44:18;10.10;99.90
12557;DHT22;6344;49.932;8.308;2023-02-12T09:46:51;9.80;99.90
12557;DHT22;6344;49.932;8.308;2023-02-12T09:49:37;9.60;99.90
12557;DHT22;6344;49.932;8.308;2023-02-12T09:52:12;9.90;99.90
12557;DHT22;6344;49.932;8.308;2023-02-12T09:54:39;10.10;99.90
12557;DHT22;6344;49.932;8.308;2023-02-12T09:57:14;10.00;99.90
12557;DHT22;6344;49.932;8.308;2023-02-12T09:59:44;9.80;99.90
12557;DHT22;6344;49.932;8.308;2023-02-12T10:02:16;9.70;99.90
12557;DHT22;6344;49.932;8.308;2023-02-12T10:04:43;10.00;99.90
12557;DHT22;6344;49.932;8.308;2023-02-12T10:07:20;10.20;99.90
12557;DHT22;6344;49.932;8.308;2023-02-12T10:10:01;10.60;92.00
12557;DHT22;6344;49.932;8.308;2023-02-12T10:12:33;10.50;97.00
12557;DHT22;6344;49.932;8.308;2023-02-12T10:15:20;10.90;68.20
12557;DHT22;6344;49.932;8.308;2023-02-12T10:18:01;10.90;65.90
12557;DHT22;6344;49.932;8.308;2023-02-12T10:20:52;10.60;99.90
12557;DHT22;6344;49.932;8.308;2023-02-12T10:23:44;10.50;99.80
12557;DHT22;6344;49.932;8.308;2023-02-12T10:26:18;10.10;99.90
12557;DHT22;6344;49.932;8.308;2023-02-12T10:28:48;9.90;99.90
12557;DHT22;6344;49.932;8.308;2023-02-12T10:31:20;10.30;99.90
12557;DHT22;6344;49.932;8.308;2023-02-12T10:33:51;10.80;98.30
12557;DHT22;6344;49.932;8.308;2023-02-12T10:36:34;10.90;66.00
12557;DHT22;6344;49.932;8.308;2023-02-12T10:39:10;11.00;59.40
12557;DHT22;6344;49.932;8.308;2023-02-12T10:41:42;10.80;62.60
12557;DHT22;6344;49.932;8.308;2023-02-12T10:44:10;10.90;92.00
12557;DHT22;6344;49.932;8.308;2023-02-12T10:46:37;11.00;57.20
12557;DHT22;6344;49.932;8.308;2023-02-12T10:49:07;10.90;90.40
12557;DHT22;6344;49.932;8.308;2023-02-12T10:51:44;11.20;46.60
12557;DHT22;6344;49.932;8.308;2023-02-12T10:54:33;11.20;58.10
12557;DHT22;6344;49.932;8.308;2023-02-12T10:57:13;11.20;59.30
12557;DHT22;6344;49.932;8.308;2023-02-12T10:59:40;11.30;47.90
12557;DHT22;6344;49.932;8.308;2023-02-12T11:02:18;11.20;62.00
12557;DHT22;6344;49.932;8.308;2023-02-12T11:04:47;11.50;38.40
12557;DHT22;6344;49.932;8.308;2023-02-12T11:07:14;11.60;23.20
12557;DHT22;6344;49.932;8.308;2023-02-12T11:09:42;11.30;70.00
12557;DHT22;6344;49.932;8.308;2023-02-12T11:12:30;10.90;99.90
12557;DHT22;6344;49.932;8.308;2023-02-12T11:14:59;11.10;97.60
12557;DHT22;6344;49.932;8.308;2023-02-12T11:17:32;11.30;86.60
12557;DHT22;6344;49.932;8.308;2023-02-12T11:20:18;11.60;40.60
12557;DHT22;6344;49.932;8.308;2023-02-12T11:22:52;11.50;43.10
12557;DHT22;6344;49.932;8.308;2023-02-12T11:25:21;11.80;22.40
12557;DHT22;6344;49.932;8.308;2023-02-12T11:28:04;11.90;26.20
12557;DHT22;6344;49.932;8.308;2023-02-12T11:30:32;11.90;18.80
12557;DHT22;6344;49.932;8.308;2023-02-12T11:33:16;11.80;36.10
12557;DHT22;6344;49.932;8.308;2023-02-12T11:35:53;12.00;9.50
12557;DHT22;6344;49.932;8.308;2023-02-12T11:38:26;11.70;33.70
12557;DHT22;6344;49.932;8.308;2023-02-12T11:40:57;11.70;35.80
12557;DHT22;6344;49.932;8.308;2023-02-12T11:43:25;11.80;42.40
12557;DHT22;6344;49.932;8.308;2023-02-12T11:45:54;11.70;46.10
12557;DHT22;6344;49.932;8.308;2023-02-12T11:48:24;11.80;76.00
12557;DHT22;6344;49.932;8.308;2023-02-12T11:50:55;12.10;24.40
12557;DHT22;6344;49.932;8.308;2023-02-12T11:53:25;12.30;11.00
12557;DHT22;6344;49.932;8.308;2023-02-12T11:55:56;12.20;14.80
12557;DHT22;6344;49.932;8.308;2023-02-12T11:58:24;12.60;1.30
12557;DHT22;6344;49.932;8.308;2023-02-12T12:00:55;12.40;1.00
12557;DHT22;6344;49.932;8.308;2023-02-12T12:03:27;12.00;28.00
12557;DHT22;6344;49.932;8.308;2023-02-12T12:05:59;12.10;38.20
12557;DHT22;6344;49.932;8.308;2023-02-12T12:08:32;12.30;13.60
12557;DHT22;6344;49.932;8.308;2023-02-12T12:11:05;12.50;8.10
12557;DHT22;6344;49.932;8.308;2023-02-12T12:13:40;12.30;22.80
12557;DHT22;6344;49.932;8.308;2023-02-12T12:16:11;12.10;49.50
12557;DHT22;6344;49.932;8.308;2023-02-12T12:19:01;12.50;17.70
12557;DHT22;6344;49.932;8.308;2023-02-12T12:21:56;12.50;1.00
12557;DHT22;6344;49.932;8.308;2023-02-12T12:24:28;12.30;9.10
12557;DHT22;6344;49.932;8.308;2023-02-12T12:27:00;12.20;15.40
12557;DHT22;6344;49.932;8.308;2023-02-12T12:29:43;12.00;44.10
12557;DHT22;6344;49.932;8.308;2023-02-12T12:32:13;11.60;82.60
12557;DHT22;6344;49.932;8.308;2023-02-12T12:34:41;11.40;99.90
12557;DHT22;6344;49.932;8.308;2023-02-12T12:37:28;11.60;82.20
12557;DHT22;6344;49.932;8.308;2023-02-12T12:40:13;11.80;54.80
12557;DHT22;6344;49.932;8.308;2023-02-12T12:43:07;11.80;52.60
12557;DHT22;6344;49.932;8.308;2023-02-12T12:45:55;11.80;78.70
12557;DHT22;6344;49.932;8.308;2023-02-12T12:48:31;11.90;58.10
12557;DHT22;6344;49.932;8.308;2023-02-12T12:51:12;11.80;70.90
12557;DHT22;6344;49.932;8.308;2023-02-12T12:53:54;12.30;30.60
12557;DHT22;6344;49.932;8.308;2023-02-12T12:56:40;12.40;11.00
12557;DHT22;6344;49.932;8.308;2023-02-12T12:59:31;12.30;17.60
12557;DHT22;6344;49.932;8.308;2023-02-12T13:05:20;12.30;14.10
12557;DHT22;6344;49.932;8.308;2023-02-12T13:07:56;11.80;47.50
12557;DHT22;6344;49.932;8.308;2023-02-12T13:10:33;11.90;43.70
12557;DHT22;6344;49.932;8.308;2023-02-12T13:13:12;11.60;81.50
12557;DHT22;6344;49.932;8.308;2023-02-12T13:15:43;11.60;89.10
12557;DHT22;6344;49.932;8.308;2023-02-12T13:18:22;11.80;53.10
12557;DHT22;6344;49.932;8.308;2023-02-12T13:20:56;11.70;19.90
12557;DHT22;6344;49.932;8.308;2023-02-12T13:23:33;11.50;32.90
12557;DHT22;6344;49.932;8.308;2023-02-12T13:26:07;11.20;90.20
12557;DHT22;6344;49.932;8.308;2023-02-12T13:28:38;11.20;90.00
12557;DHT22;6344;49.932;8.308;2023-02-12T13:31:08;11.10;93.80
12557;DHT22;6344;49.932;8.308;2023-02-12T13:33:41;11.20;97.30
12557;DHT22;6344;49.932;8.308;2023-02-12T13:36:11;11.40;70.40
12557;DHT22;6344;49.932;8.308;2023-02-12T13:38:42;11.40;68.20
12557;DHT22;6344;49.932;8.308;2023-02-12T13:41:14;11.70;46.70
12557;DHT22;6344;49.932;8.308;2023-02-12T13:43:48;11.60;12.80
12557;DHT22;6344;49.932;8.308;2023-02-12T13:46:24;11.40;26.50
12557;DHT22;6344;49.932;8.308;2023-02-12T13:49:03;11.40;38.20
12557;DHT22;6344;49.932;8.308;2023-02-12T13:51:40;11.40;33.80
12557;DHT22;6344;49.932;8.308;2023-02-12T13:54:19;11.40;33.70
12557;DHT22;6344;49.932;8.308;2023-02-12T13:56:52;11.30;51.30
12557;DHT22;6344;49.932;8.308;2023-02-12T13:59:39;11.30;66.90
12557;DHT22;6344;49.932;8.308;2023-02-12T14:05:24;11.30;56.20
12557;DHT22;6344;49.932;8.308;2023-02-12T14:07:53;11.30;49.60
12557;DHT22;6344;49.932;8.308;2023-02-12T14:10:23;11.40;54.10
12557;DHT22;6344;49.932;8.308;2023-02-12T14:12:52;11.50;26.60
12557;DHT22;6344;49.932;8.308;2023-02-12T14:15:32;11.60;25.60
12557;DHT22;6344;49.932;8.308;2023-02-12T14:18:19;11.60;34.10
12557;DHT22;6344;49.932;8.308;2023-02-12T14:20:46;11.50;25.50
12557;DHT22;6344;49.932;8.308;2023-02-12T14:23:31;11.30;39.80
12557;DHT22;6344;49.932;8.308;2023-02-12T14:25:59;11.40;48.10
12557;DHT22;6344;49.932;8.308;2023-02-12T14:28:33;11.30;45.90
12557;DHT22;6344;49.932;8.308;2023-02-12T14:31:39;11.30;60.70
12557;DHT22;6344;49.932;8.308;2023-02-12T14:37:17;11.40;44.10
12557;DHT22;6344;49.932;8.308;2023-02-12T14:39:44;11.40;40.60
12557;DHT22;6344;49.932;8.308;2023-02-12T14:42:42;11.50;40.50
12557;DHT22;6344;49.932;8.308;2023-02-12T14:45:30;11.10;86.30
12557;DHT22;6344;49.932;8.308;2023-02-12T14:47:57;11.10;84.90
12557;DHT22;6344;49.932;8.308;2023-02-12T14:50:29;11.20;91.10
12557;DHT22;6344;49.932;8.308;2023-02-12T14:53:05;11.20;72.60
12557;DHT22;6344;49.932;8.308;2023-02-12T14:55:33;11.10;80.50
12557;DHT22;6344;49.932;8.308;2023-02-12T14:58:03;11.10;91.80
12557;DHT22;6344;49.932;8.308;2023-02-12T15:00:34;10.90;99.00
12557;DHT22;6344;49.932;8.308;2023-02-12T15:03:12;11.00;99.90
12557;DHT22;6344;49.932;8.308;2023-02-12T15:05:44;10.70;99.90
12557;DHT22;6344;49.932;8.308;2023-02-12T15:08:18;10.90;99.90
12557;DHT22;6344;49.932;8.308;2023-02-12T15:10:50;10.80;99.90
12557;DHT22;6344;49.932;8.308;2023-02-12T15:13:23;10.90;99.90
12557;DHT22;6344;49.932;8.308;2023-02-12T15:15:57;10.90;99.90
12557;DHT22;6344;49.932;8.308;2023-02-12T15:18:29;10.80;99.90
12557;DHT22;6344;49.932;8.308;2023-02-12T15:21:05;10.70;99.90
12557;DHT22;6344;49.932;8.308;2023-02-12T15:23:37;10.70;99.90
12557;DHT22;6344;49.932;8.308;2023-02-12T15:26:08;10.80;99.90
12557;DHT22;6344;49.932;8.308;2023-02-12T15:28:38;11.00;99.90
12557;DHT22;6344;49.932;8.308;2023-02-12T15:31:08;11.30;75.40
12557;DHT22;6344;49.932;8.308;2023-02-12T15:33:39;11.30;71.40
12557;DHT22;6344;49.932;8.308;2023-02-12T15:36:08;11.10;89.60
12557;DHT22;6344;49.932;8.308;2023-02-12T15:38:37;10.90;91.70
12557;DHT22;6344;49.932;8.308;2023-02-12T15:41:05;10.80;99.60
12557;DHT22;6344;49.932;8.308;2023-02-12T15:43:33;10.60;99.90
12557;DHT22;6344;49.932;8.308;2023-02-12T15:46:02;10.50;99.90
12557;DHT22;6344;49.932;8.308;2023-02-12T15:48:33;10.40;99.90
12557;DHT22;6344;49.932;8.308;2023-02-12T15:51:04;10.40;99.90
12557;DHT22;6344;49.932;8.308;2023-02-12T15:53:33;10.20;99.90
12557;DHT22;6344;49.932;8.308;2023-02-12T15:56:02;9.90;99.90
12557;DHT22;6344;49.932;8.308;2023-02-12T15:58:30;9.70;99.90
12557;DHT22;6344;49.932;8.308;2023-02-12T16:01:00;9.60;99.90
12557;DHT22;6344;49.932;8.308;2023-02-12T16:03:30;9.50;99.90
12557;DHT22;6344;49.932;8.308;2023-02-12T16:06:02;9.30;99.90
12557;DHT22;6344;49.932;8.308;2023-02-12T16:08:31;9.20;99.90
12557;DHT22;6344;49.932;8.308;2023-02-12T16:10:59;9.00;99.90
12557;DHT22;6344;49.932;8.308;2023-02-12T16:13:30;9.00;99.90
12557;DHT22;6344;49.932;8.308;2023-02-12T16:16:06;8.80;99.90
12557;DHT22;6344;49.932;8.308;2023-02-12T16:18:33;8.70;99.90
12557;DHT22;6344;49.932;8.308;2023-02-12T16:21:04;8.60;99.90
12557;DHT22;6344;49.932;8.308;2023-02-12T16:23:31;8.50;99.90
12557;DHT22;6344;49.932;8.308;2023-02-12T16:26:00;8.40;99.90
12557;DHT22;6344;49.932;8.308;2023-02-12T16:28:28;8.30;99.90
12557;DHT22;6344;49.932;8.308;2023-02-12T16:31:07;8.10;99.90
12557;DHT22;6344;49.932;8.308;2023-02-12T16:33:41;8.10;99.90
12557;DHT22;6344;49.932;8.308;2023-02-12T16:36:14;8.00;99.90
12557;DHT22;6344;49.932;8.308;2023-02-12T16:38:42;7.70;99.90
12557;DHT22;6344;49.932;8.308;2023-02-12T16:41:18;7.60;99.90